메인 페이지
METAR-TAF:

METAR-TAF

공항 :

암만, 요르단

위도: 31-59N, 경도: 035-59E, 고도: 767m

현재 날씨관측

예보는 1 시간 1분 전, 00:00시(UTC)에 발표되었습니다.
무풍
온도 8°C
습도 87%
기압 1020 hPa
시정: 5000m
박무

METAR: OJAM 100000Z 00000KT 5000 BR NSC 08/06 Q1020 NOSIG

시각: 03:01 (01:01 UTC)

예보

예보는 2 시간 1분 전, 23:00시(UTC)에 발표되었습니다.
예보 대상 시간: 09일 24시부터 11일 06시까지 (UTC)
남서5kt
시정: 3000m
고도 3000ft 상공 구름 조금
박무
확률 40%
10일 02시부터 10일 06시까지 (UTC)
여러 방향의 바람 3kt
시정: 0800m
고도 2500ft 상공 구름 조금
안개
전환 중
10일 07시부터 10일 09시까지 (UTC)
시정: 5000m
고도 3000ft 상공 구름 조금
연무

TAF: OJAM 092300Z 0924/1106 23005KT 3000 BR FEW030 PROB40 1002/1006 VRB03KT 0800 FG FEW025 BECMG 1007/1009 5000 HZ FEW030

4,000개 이상의 공항 관측 자료 및 예보 (METAR 및 TAF 보고).

지도상에서 검색 가능한 기상관측소가 노란 점과 빨간 점으로 표시되어 있습니다.

기상관측소 명을 보려면 표시 위로 마우스를 이동하세요.

날씨 관측과 예보를 보려면 클릭하세요.

지도 변경 : 확대하려면 엑스 표시가 있는 녹색 버튼, 축소하려면 빼기 표시가 있는 녹색 버튼, 다음 페이지의 지도를 보려면 녹색 화살표를 클릭하세요.


METAR-TAF: